Latest Coastal Weather Observations for Alva Beach

IDQ60701

Issued at 12:35 pm EST Saturday 2 August 2014 (issued every 10 minutes, with the page automatically refreshed every 10 minutes)

About coastal observations | Map of coastal stations | Coastal observations for QLD | Marine services | Other Formats
Station Details ID: 033295 Name: ALVA BEACH Lat: -19.46 Lon: 147.48 Height: 7.5 m
Data from the previous 72 hours. | See also: Recent months at Alva Beach
Date/Time
EST
Temp

°C
Wind Pressure Rain
since 9am
mm
Weather Cloud Vis
km
Sea
Height
m
Swell
Dir
 
Speed
knots
Gust
knots
hPa Trend Height
m
Period
s
Dir
02/12:30pm 24.3 ENE 6 8 1017.8 - 0.0 - - - - - - -
02/12:00pm 24.4 ENE 6 8 1018.3 - 0.0 - - - - - - -
02/11:30am 23.2 ENE 5 7 1018.9 - 0.0 - - - - - - -
02/11:00am 23.1 ENE 6 7 1019.3 - 0.0 - - - - - - -
02/10:30am 22.7 SSW 3 6 1019.6 - 0.0 - - - - - - -
02/10:00am 21.1 SSW 4 6 1019.7 - 0.0 - - - - - - -
02/09:30am 19.3 SSW 4 7 1019.7 - 0.0 - - - - - - -
02/09:00am 18.3 SW 4 6 1019.7 - 0.0 - - - - - - -
02/08:30am 18.8 SW 4 6 1019.3 - 0.0 - - - - - - -
02/08:00am 18.5 ESE 3 4 1018.8 - 0.0 - - - - - - -
02/07:30am 16.8 SSW 4 5 1018.6 - 0.0 - - - - - - -
02/07:00am 15.4 SW 3 5 1018.3 - 0.0 - - - - - - -
02/06:30am 16.1 SW 4 5 1018.0 - 0.0 - - - - - - -
02/06:00am 16.1 SW 4 6 1017.8 - 0.0 - - - - - - -
02/05:30am 16.2 SSW 4 8 1017.5 - 0.0 - - - - - - -
02/05:00am 16.2 SSW 6 8 1017.5 - 0.0 - - - - - - -
02/04:30am 16.5 SSW 4 5 1016.9 - 0.0 - - - - - - -
02/04:00am 17.0 S 5 6 1016.9 - 0.0 - - - - - - -
02/03:30am 17.2 SSW 4 5 1016.9 - 0.0 - - - - - - -
02/03:00am 18.1 SSW 2 4 1016.7 - 0.0 - - - - - - -
02/02:30am 18.2 CALM 0 0 1017.0 - 0.0 - - - - - - -
02/02:00am 17.7 NNW 0 0 1017.2 - 0.0 - - - - - - -
02/01:30am 18.4 CALM 0 0 1017.4 - 0.0 - - - - - - -
02/01:00am 18.5 CALM 0 0 1017.5 - 0.0 - - - - - - -
02/12:30am 18.7 CALM 0 0 1017.5 - 0.0 - - - - - - -
02/12:00am 18.6 N 1 3 1017.6 - 0.0 - - - - - - -
 
Date/Time
EST
Temp

°C
Wind Pressure Rain
since 9am
mm
Weather Cloud Vis
km
Sea
Height
m
Swell
Dir
 
Speed
knots
Gust
knots
hPa Trend Height
m
Period
s
Dir
01/11:30pm 19.1 N 1 3 1017.8 - 0.0 - - - - - - -
01/11:00pm 19.5 N 4 5 1017.9 - 0.0 - - - - - - -
01/10:30pm 19.5 NW 2 4 1017.9 - 0.0 - - - - - - -
01/10:00pm 20.4 N 3 5 1017.9 - 0.0 - - - - - - -
01/09:30pm 20.8 N 4 6 1017.5 - 0.0 - - - - - - -
01/09:00pm 21.0 N 5 8 1017.4 - 0.0 - - - - - - -
01/08:30pm 21.2 N 5 7 1017.3 - 0.0 - - - - - - -
01/08:00pm 21.2 N 6 9 1017.1 - 0.0 - - - - - - -
01/07:30pm 21.1 N 5 7 1016.9 - 0.0 - - - - - - -
01/07:00pm 21.2 N 5 7 1016.5 - 0.0 - - - - - - -
01/06:30pm 21.3 N 7 9 1015.9 - 0.0 - - - - - - -
01/06:00pm 21.5 NNE 9 11 1015.4 - 0.0 - - - - - - -
01/05:30pm 21.7 NNE 9 11 1015.1 - 0.0 - - - - - - -
01/05:00pm 21.8 NNE 10 11 1015.0 - 0.0 - - - - - - -
01/04:30pm 22.2 NNE 10 11 1014.8 - 0.0 - - - - - - -
01/04:00pm 22.6 NNE 10 11 1014.8 - 0.0 - - - - - - -
01/03:30pm 22.4 NE 11 12 1014.9 - 0.0 - - - - - - -
01/03:00pm 22.9 NE 11 12 1015.0 - 0.0 - - - - - - -
01/02:30pm 23.8 NE 10 13 1015.3 - 0.0 - - - - - - -
01/02:00pm 23.7 ENE 10 12 1015.5 - 0.0 - - - - - - -
01/01:30pm 23.7 ENE 10 12 1016.0 - 0.0 - - - - - - -
01/01:00pm 23.3 E 8 11 1016.6 - 0.0 - - - - - - -
01/12:30pm 23.2 E 7 10 1016.9 - 0.0 - - - - - - -
01/12:00pm 22.8 E 8 10 1017.3 - 0.0 - - - - - - -
01/11:30am 23.4 E 6 9 1017.8 - 0.0 - - - - - - -
01/11:00am 22.9 ESE 5 9 1018.1 - 0.0 - - - - - - -
01/10:30am 23.4 ESE 5 9 1018.4 - 0.0 - - - - - - -
01/10:00am 22.6 ESE 6 9 1018.6 - 0.0 - - - - - - -
01/09:30am 22.2 ESE 6 9 1018.7 - 0.0 - - - - - - -
01/09:00am 21.4 SE 6 9 1018.5 - 0.0 - - - - - - -
01/08:30am 20.6 SE 3 6 1018.3 - 0.0 - - - - - - -
01/08:00am 18.3 S 4 6 1018.0 - 0.0 - - - - - - -
01/07:30am 17.0 S 4 6 1017.7 - 0.0 - - - - - - -
01/07:00am 15.9 S 5 6 1017.4 - 0.0 - - - - - - -
01/06:30am 16.4 S 4 5 1017.1 - 0.0 - - - - - - -
01/06:00am 16.6 S 3 5 1016.7 - 0.0 - - - - - - -
01/05:30am 17.2 SSW 3 4 1016.5 - 0.0 - - - - - - -
01/05:00am 17.1 S 4 5 1016.3 - 0.0 - - - - - - -
01/04:30am 16.9 S 4 6 1016.2 - 0.0 - - - - - - -
01/04:00am 20.2 E 6 7 1016.1 - 0.0 - - - - - - -
01/03:30am 20.3 ENE 7 9 1016.2 - 0.0 - - - - - - -
01/03:00am 20.4 ENE 9 10 1016.3 - 0.0 - - - - - - -
01/02:30am 20.5 ENE 9 10 1016.6 - 0.0 - - - - - - -
01/02:00am 20.5 ENE 9 10 1016.6 - 0.0 - - - - - - -
01/01:30am 20.5 ENE 9 10 1017.0 - 0.0 - - - - - - -
01/01:00am 20.6 NE 9 10 1017.2 - 0.0 - - - - - - -
01/12:30am 20.6 ENE 9 11 1017.3 - 0.0 - - - - - - -
01/12:00am 20.2 ENE 9 10 1017.3 - 0.0 - - - - - - -
 
Date/Time
EST
Temp

°C
Wind Pressure Rain
since 9am
mm
Weather Cloud Vis
km
Sea
Height
m
Swell
Dir
 
Speed
knots
Gust
knots
hPa Trend Height
m
Period
s
Dir
31/11:30pm 20.2 ENE 10 11 1017.5 - 0.0 - - - - - - -
31/11:00pm 20.2 ENE 9 11 1017.7 - 0.0 - - - - - - -
31/10:30pm 20.2 ENE 10 11 1017.9 - 0.0 - - - - - - -
31/10:00pm 20.1 ENE 9 11 1017.9 - 0.0 - - - - - - -
31/09:30pm 20.1 ENE 11 13 1017.9 - 0.0 - - - - - - -
31/09:00pm 20.1 ENE 11 13 1017.8 - 0.0 - - - - - - -
31/08:30pm 20.2 ENE 11 12 1017.7 - 0.0 - - - - - - -
31/08:00pm 20.1 ENE 10 12 1017.5 - 0.0 - - - - - - -
31/07:30pm 20.1 ENE 11 13 1017.1 - 0.0 - - - - - - -
31/07:00pm 20.2 ENE 11 14 1016.6 - 0.0 - - - - - - -
31/06:30pm 20.2 ENE 12 13 1016.3 - 0.0 - - - - - - -
31/06:00pm 20.4 ENE 11 13 1016.2 - 0.0 - - - - - - -
31/05:30pm 20.5 ENE 11 14 1016.1 - 0.0 - - - - - - -
31/05:00pm 20.9 ENE 13 15 1016.0 - 0.0 - - - - - - -
31/04:30pm 21.4 ENE 11 14 1015.8 - 0.0 - - - - - - -
31/04:00pm 22.0 ENE 12 16 1015.7 - 0.0 - - - - - - -
31/03:30pm 22.1 ENE 12 15 1015.6 - 0.0 - - - - - - -
31/03:00pm 21.9 E 11 14 1015.7 - 0.0 - - - - - - -
31/02:30pm 21.9 E 10 13 1016.0 - 0.0 - - - - - - -
31/02:00pm 22.0 E 9 13 1016.3 - 0.0 - - - - - - -
31/01:30pm 22.8 E 7 10 1016.9 - 0.0 - - - - - - -
31/01:00pm 23.2 E 8 12 1017.3 - 0.0 - - - - - - -
31/12:30pm 22.9 ESE 6 10 1017.7 - 0.0 - - - - - - -
31/12:00pm 22.8 ESE 6 10 1018.3 - 0.0 - - - - - - -
31/11:30am 22.3 ESE 7 10 1018.7 - 0.0 - - - - - - -
31/11:00am 22.1 ESE 6 10 1019.2 - 0.0 - - - - - - -
31/10:30am 20.7 ESE 9 13 1019.4 - 0.0 - - - - - - -
31/10:00am 20.4 SE 8 13 1019.6 - 0.0 - - - - - - -
31/09:30am 19.9 SE 9 14 1019.7 - 0.0 - - - - - - -
31/09:00am 20.1 SE 5 8 1019.6 - 0.0 - - - - - - -
31/08:30am 18.3 S 4 6 1019.5 - 0.0 - - - - - - -
31/08:00am 16.7 S 4 7 1019.2 - 0.0 - - - - - - -
31/07:30am 15.1 S 5 7 1019.1 - 0.0 - - - - - - -
31/07:00am 14.4 S 5 7 1018.8 - 0.0 - - - - - - -
31/06:30am 14.1 S 5 7 1018.6 - 0.0 - - - - - - -
31/06:00am 13.8 S 5 7 1018.4 - 0.0 - - - - - - -
31/05:30am 13.7 S 5 8 1018.2 - 0.0 - - - - - - -
31/05:00am 13.9 S 6 8 1018.1 - 0.0 - - - - - - -
31/04:30am 14.0 S 6 8 1018.0 - 0.0 - - - - - - -
31/04:00am 13.9 S 5 7 1018.1 - 0.0 - - - - - - -
31/03:30am 14.3 S 4 6 1018.2 - 0.0 - - - - - - -
31/03:00am 15.4 S 5 6 1018.4 - 0.0 - - - - - - -
31/02:30am 18.4 ESE 6 9 1018.5 - 0.0 - - - - - - -
31/02:00am 18.5 ESE 7 11 1018.6 - 0.0 - - - - - - -
31/01:30am 19.1 ESE 9 13 1018.9 - 0.0 - - - - - - -
31/01:00am 19.4 E 10 15 1019.0 - 0.0 - - - - - - -
31/12:30am 19.6 E 10 14 1019.2 - 0.0 - - - - - - -
31/12:00am 19.7 E 10 16 1019.2 - 0.0 - - - - - - -
 
Date/Time
EST
Temp

°C
Wind Pressure Rain
since 9am
mm
Weather Cloud Vis
km
Sea
Height
m
Swell
Dir
 
Speed
knots
Gust
knots
hPa Trend Height
m
Period
s
Dir
30/11:30pm 19.5 E 10 14 1019.2 - 0.0 - - - - - - -
30/11:00pm 19.7 E 11 16 1019.4 - 0.0 - - - - - - -
30/10:30pm 19.7 E 11 16 1019.4 - 0.0 - - - - - - -
30/10:00pm 19.9 E 12 16 1019.5 - 0.0 - - - - - - -
30/09:30pm 20.0 E 12 17 1019.6 - 0.0 - - - - - - -
30/09:00pm 20.0 E 14 18 1019.3 - 0.0 - - - - - - -
30/08:30pm 20.1 E 15 19 1019.1 - 0.0 - - - - - - -
30/08:00pm 20.2 E 14 18 1018.9 - 0.0 - - - - - - -
30/07:30pm 20.2 E 14 18 1018.6 - 0.0 - - - - - - -
30/07:00pm 20.1 E 15 20 1018.4 - 0.0 - - - - - - -
30/06:30pm 20.3 E 14 19 1018.0 - 0.0 - - - - - - -
30/06:00pm 20.2 E 15 19 1017.9 - 0.0 - - - - - - -
30/05:30pm 20.2 E 13 18 1017.7 - 0.0 - - - - - - -
30/05:00pm 20.6 E 13 18 1017.7 - 0.0 - - - - - - -
30/04:30pm 21.0 E 12 16 1017.7 - 0.0 - - - - - - -
30/04:00pm 21.2 E 13 18 1017.6 - 0.0 - - - - - - -
30/03:30pm 21.4 E 13 17 1017.5 - 0.0 - - - - - - -
30/03:00pm 21.4 E 12 16 1017.6 - 0.0 - - - - - - -
30/02:30pm 21.7 E 12 17 1017.9 - 0.0 - - - - - - -
30/02:00pm 21.8 E 11 16 1018.2 - 0.0 - - - - - - -
30/01:30pm 23.0 E 11 16 1018.6 - 0.0 - - - - - - -
30/01:00pm 23.3 E 11 16 1019.1 - 0.0 - - - - - - -

Other Formats:

Comma delimited format used in spreadsheet applications
http://www.bom.gov.au/fwo/IDQ60701/IDQ60701.95296.axf

JavaScript Object Notation format (JSON) in row-major order
http://www.bom.gov.au/fwo/IDQ60701/IDQ60701.95296.json